sensor_id;sensor_type;location;lat;lon;timestamp;P1;durP1;ratioP1;P2;durP2;ratioP2
5040;SDS011;2539;52.568;13.364;2023-02-15T00:01:39;33.90;;;19.30;;
5040;SDS011;2539;52.568;13.364;2023-02-15T00:04:06;35.23;;;19.30;;
5040;SDS011;2539;52.568;13.364;2023-02-15T00:06:33;31.53;;;19.63;;
5040;SDS011;2539;52.568;13.364;2023-02-15T00:09:00;35.10;;;20.87;;
5040;SDS011;2539;52.568;13.364;2023-02-15T00:11:26;48.23;;;32.60;;
5040;SDS011;2539;52.568;13.364;2023-02-15T00:14:07;33.30;;;19.00;;
5040;SDS011;2539;52.568;13.364;2023-02-15T00:16:35;34.10;;;19.40;;
5040;SDS011;2539;52.568;13.364;2023-02-15T00:19:03;32.33;;;19.83;;
5040;SDS011;2539;52.568;13.364;2023-02-15T00:21:30;35.00;;;21.40;;
5040;SDS011;2539;52.568;13.364;2023-02-15T00:23:58;34.30;;;20.30;;
5040;SDS011;2539;52.568;13.364;2023-02-15T00:26:26;33.37;;;19.90;;
5040;SDS011;2539;52.568;13.364;2023-02-15T00:28:53;33.80;;;20.30;;
5040;SDS011;2539;52.568;13.364;2023-02-15T00:31:20;32.30;;;19.80;;
5040;SDS011;2539;52.568;13.364;2023-02-15T00:33:46;37.03;;;21.30;;
5040;SDS011;2539;52.568;13.364;2023-02-15T00:36:11;36.43;;;20.60;;
5040;SDS011;2539;52.568;13.364;2023-02-15T00:38:37;35.60;;;19.47;;
5040;SDS011;2539;52.568;13.364;2023-02-15T00:41:04;34.73;;;19.67;;
5040;SDS011;2539;52.568;13.364;2023-02-15T00:43:33;41.00;;;20.57;;
5040;SDS011;2539;52.568;13.364;2023-02-15T00:45:59;33.87;;;19.77;;
5040;SDS011;2539;52.568;13.364;2023-02-15T00:48:26;29.67;;;19.40;;
5040;SDS011;2539;52.568;13.364;2023-02-15T00:50:53;37.80;;;22.67;;
5040;SDS011;2539;52.568;13.364;2023-02-15T00:53:23;35.40;;;22.00;;
5040;SDS011;2539;52.568;13.364;2023-02-15T00:55:50;34.37;;;21.57;;
5040;SDS011;2539;52.568;13.364;2023-02-15T00:58:16;32.60;;;19.87;;
5040;SDS011;2539;52.568;13.364;2023-02-15T01:00:44;33.40;;;20.77;;
5040;SDS011;2539;52.568;13.364;2023-02-15T01:03:13;41.50;;;22.97;;
5040;SDS011;2539;52.568;13.364;2023-02-15T01:05:41;36.00;;;20.60;;
5040;SDS011;2539;52.568;13.364;2023-02-15T01:08:09;35.17;;;21.50;;
5040;SDS011;2539;52.568;13.364;2023-02-15T01:10:35;34.90;;;21.50;;
5040;SDS011;2539;52.568;13.364;2023-02-15T01:13:01;35.63;;;20.50;;
5040;SDS011;2539;52.568;13.364;2023-02-15T01:15:29;35.67;;;20.80;;
5040;SDS011;2539;52.568;13.364;2023-02-15T01:17:55;37.20;;;20.50;;
5040;SDS011;2539;52.568;13.364;2023-02-15T01:20:22;35.07;;;21.43;;
5040;SDS011;2539;52.568;13.364;2023-02-15T01:22:57;42.67;;;21.93;;
5040;SDS011;2539;52.568;13.364;2023-02-15T01:25:24;38.40;;;21.30;;
5040;SDS011;2539;52.568;13.364;2023-02-15T01:27:50;35.20;;;21.70;;
5040;SDS011;2539;52.568;13.364;2023-02-15T01:30:17;35.83;;;20.83;;
5040;SDS011;2539;52.568;13.364;2023-02-15T01:32:43;34.87;;;21.03;;
5040;SDS011;2539;52.568;13.364;2023-02-15T01:35:09;38.57;;;22.00;;
5040;SDS011;2539;52.568;13.364;2023-02-15T01:37:36;35.87;;;21.50;;
5040;SDS011;2539;52.568;13.364;2023-02-15T01:40:03;34.60;;;20.33;;
5040;SDS011;2539;52.568;13.364;2023-02-15T01:42:31;37.80;;;21.63;;
5040;SDS011;2539;52.568;13.364;2023-02-15T01:44:59;37.87;;;21.23;;
5040;SDS011;2539;52.568;13.364;2023-02-15T01:47:35;38.60;;;22.70;;
5040;SDS011;2539;52.568;13.364;2023-02-15T01:53:12;37.97;;;21.63;;
5040;SDS011;2539;52.568;13.364;2023-02-15T01:55:44;38.90;;;22.10;;
5040;SDS011;2539;52.568;13.364;2023-02-15T01:58:14;34.07;;;19.37;;
5040;SDS011;2539;52.568;13.364;2023-02-15T02:00:41;38.53;;;22.57;;
5040;SDS011;2539;52.568;13.364;2023-02-15T02:03:09;40.47;;;22.80;;
5040;SDS011;2539;52.568;13.364;2023-02-15T02:05:35;34.30;;;20.47;;
5040;SDS011;2539;52.568;13.364;2023-02-15T02:08:03;41.40;;;22.30;;
5040;SDS011;2539;52.568;13.364;2023-02-15T02:10:29;39.70;;;22.77;;
5040;SDS011;2539;52.568;13.364;2023-02-15T02:12:57;40.07;;;21.40;;
5040;SDS011;2539;52.568;13.364;2023-02-15T02:15:39;40.00;;;22.07;;
5040;SDS011;2539;52.568;13.364;2023-02-15T02:18:36;39.03;;;22.00;;
5040;SDS011;2539;52.568;13.364;2023-02-15T02:21:21;38.80;;;22.17;;
5040;SDS011;2539;52.568;13.364;2023-02-15T02:24:29;40.50;;;23.00;;
5040;SDS011;2539;52.568;13.364;2023-02-15T02:39:07;40.00;;;21.33;;
5040;SDS011;2539;52.568;13.364;2023-02-15T02:41:55;38.60;;;22.13;;
5040;SDS011;2539;52.568;13.364;2023-02-15T02:47:44;39.87;;;22.13;;
5040;SDS011;2539;52.568;13.364;2023-02-15T02:50:21;41.00;;;23.17;;
5040;SDS011;2539;52.568;13.364;2023-02-15T02:52:49;42.27;;;22.37;;
5040;SDS011;2539;52.568;13.364;2023-02-15T02:57:59;44.50;;;22.50;;
5040;SDS011;2539;52.568;13.364;2023-02-15T03:00:38;42.97;;;23.63;;
5040;SDS011;2539;52.568;13.364;2023-02-15T03:03:11;44.03;;;23.47;;
5040;SDS011;2539;52.568;13.364;2023-02-15T03:05:43;47.00;;;23.10;;
5040;SDS011;2539;52.568;13.364;2023-02-15T03:08:12;45.93;;;24.43;;
5040;SDS011;2539;52.568;13.364;2023-02-15T03:10:47;51.10;;;24.00;;
5040;SDS011;2539;52.568;13.364;2023-02-15T03:13:16;47.13;;;24.43;;
5040;SDS011;2539;52.568;13.364;2023-02-15T03:15:43;42.97;;;23.10;;
5040;SDS011;2539;52.568;13.364;2023-02-15T03:18:33;42.43;;;23.53;;
5040;SDS011;2539;52.568;13.364;2023-02-15T03:21:05;50.27;;;25.23;;
5040;SDS011;2539;52.568;13.364;2023-02-15T03:23:34;44.07;;;23.60;;
5040;SDS011;2539;52.568;13.364;2023-02-15T03:26:05;43.67;;;22.70;;
5040;SDS011;2539;52.568;13.364;2023-02-15T03:28:40;48.67;;;24.97;;
5040;SDS011;2539;52.568;13.364;2023-02-15T03:31:11;46.90;;;22.90;;
5040;SDS011;2539;52.568;13.364;2023-02-15T03:33:54;46.60;;;25.87;;
5040;SDS011;2539;52.568;13.364;2023-02-15T03:36:39;45.87;;;24.70;;
5040;SDS011;2539;52.568;13.364;2023-02-15T03:42:06;49.40;;;24.60;;
5040;SDS011;2539;52.568;13.364;2023-02-15T03:47:17;46.43;;;23.67;;
5040;SDS011;2539;52.568;13.364;2023-02-15T03:50:05;49.37;;;25.80;;
5040;SDS011;2539;52.568;13.364;2023-02-15T03:53:04;48.10;;;25.40;;
5040;SDS011;2539;52.568;13.364;2023-02-15T03:55:33;51.77;;;26.90;;
5040;SDS011;2539;52.568;13.364;2023-02-15T03:58:00;55.10;;;26.70;;
5040;SDS011;2539;52.568;13.364;2023-02-15T04:00:49;48.47;;;26.10;;
5040;SDS011;2539;52.568;13.364;2023-02-15T04:03:45;57.53;;;25.93;;
5040;SDS011;2539;52.568;13.364;2023-02-15T04:06:19;55.57;;;26.87;;
5040;SDS011;2539;52.568;13.364;2023-02-15T04:08:45;49.70;;;25.57;;
5040;SDS011;2539;52.568;13.364;2023-02-15T04:11:30;50.57;;;26.20;;
5040;SDS011;2539;52.568;13.364;2023-02-15T04:13:57;54.77;;;26.50;;
5040;SDS011;2539;52.568;13.364;2023-02-15T04:16:23;57.23;;;26.97;;
5040;SDS011;2539;52.568;13.364;2023-02-15T04:18:50;48.97;;;26.80;;
5040;SDS011;2539;52.568;13.364;2023-02-15T04:21:35;47.47;;;26.10;;
5040;SDS011;2539;52.568;13.364;2023-02-15T04:24:20;52.00;;;26.03;;
5040;SDS011;2539;52.568;13.364;2023-02-15T04:27:05;53.00;;;25.07;;
5040;SDS011;2539;52.568;13.364;2023-02-15T04:29:31;52.77;;;25.93;;
5040;SDS011;2539;52.568;13.364;2023-02-15T04:31:58;56.03;;;27.33;;
5040;SDS011;2539;52.568;13.364;2023-02-15T04:34:26;50.20;;;24.77;;
5040;SDS011;2539;52.568;13.364;2023-02-15T04:36:52;53.20;;;26.77;;
5040;SDS011;2539;52.568;13.364;2023-02-15T04:39:18;54.17;;;27.07;;
5040;SDS011;2539;52.568;13.364;2023-02-15T04:41:44;53.80;;;26.73;;
5040;SDS011;2539;52.568;13.364;2023-02-15T04:44:11;52.57;;;26.87;;
5040;SDS011;2539;52.568;13.364;2023-02-15T04:46:37;53.77;;;25.97;;
5040;SDS011;2539;52.568;13.364;2023-02-15T04:49:03;55.90;;;28.03;;
5040;SDS011;2539;52.568;13.364;2023-02-15T04:51:28;54.20;;;27.53;;
5040;SDS011;2539;52.568;13.364;2023-02-15T04:53:54;57.57;;;28.50;;
5040;SDS011;2539;52.568;13.364;2023-02-15T04:56:21;66.93;;;29.83;;
5040;SDS011;2539;52.568;13.364;2023-02-15T04:58:47;55.80;;;26.83;;
5040;SDS011;2539;52.568;13.364;2023-02-15T05:01:14;55.33;;;25.83;;
5040;SDS011;2539;52.568;13.364;2023-02-15T05:03:40;62.57;;;29.20;;
5040;SDS011;2539;52.568;13.364;2023-02-15T05:06:05;61.87;;;29.93;;
5040;SDS011;2539;52.568;13.364;2023-02-15T05:08:31;57.77;;;28.17;;
5040;SDS011;2539;52.568;13.364;2023-02-15T05:10:57;57.80;;;29.87;;
5040;SDS011;2539;52.568;13.364;2023-02-15T05:13:23;58.70;;;29.47;;
5040;SDS011;2539;52.568;13.364;2023-02-15T05:15:51;56.97;;;28.00;;
5040;SDS011;2539;52.568;13.364;2023-02-15T05:18:18;54.87;;;27.07;;
5040;SDS011;2539;52.568;13.364;2023-02-15T05:20:47;59.83;;;28.50;;
5040;SDS011;2539;52.568;13.364;2023-02-15T05:23:13;50.57;;;26.47;;
5040;SDS011;2539;52.568;13.364;2023-02-15T05:25:40;56.07;;;28.43;;
5040;SDS011;2539;52.568;13.364;2023-02-15T05:28:25;50.67;;;25.80;;
5040;SDS011;2539;52.568;13.364;2023-02-15T05:31:02;59.07;;;28.77;;
5040;SDS011;2539;52.568;13.364;2023-02-15T05:33:31;58.30;;;28.47;;
5040;SDS011;2539;52.568;13.364;2023-02-15T05:35:57;60.13;;;28.40;;
5040;SDS011;2539;52.568;13.364;2023-02-15T05:38:24;58.43;;;26.87;;
5040;SDS011;2539;52.568;13.364;2023-02-15T05:40:51;53.37;;;27.40;;
5040;SDS011;2539;52.568;13.364;2023-02-15T05:43:17;53.27;;;27.00;;
5040;SDS011;2539;52.568;13.364;2023-02-15T05:45:45;54.77;;;26.70;;
5040;SDS011;2539;52.568;13.364;2023-02-15T05:48:16;59.20;;;27.83;;
5040;SDS011;2539;52.568;13.364;2023-02-15T05:50:43;52.30;;;26.80;;
5040;SDS011;2539;52.568;13.364;2023-02-15T05:53:10;55.53;;;26.87;;
5040;SDS011;2539;52.568;13.364;2023-02-15T05:55:37;53.63;;;25.47;;
5040;SDS011;2539;52.568;13.364;2023-02-15T05:58:05;56.03;;;27.47;;
5040;SDS011;2539;52.568;13.364;2023-02-15T06:00:31;60.30;;;27.30;;
5040;SDS011;2539;52.568;13.364;2023-02-15T06:02:58;55.40;;;26.50;;
5040;SDS011;2539;52.568;13.364;2023-02-15T06:05:24;61.67;;;29.77;;
5040;SDS011;2539;52.568;13.364;2023-02-15T06:07:50;57.40;;;29.23;;
5040;SDS011;2539;52.568;13.364;2023-02-15T06:10:16;57.30;;;28.40;;
5040;SDS011;2539;52.568;13.364;2023-02-15T06:12:43;57.60;;;26.50;;
5040;SDS011;2539;52.568;13.364;2023-02-15T06:15:10;59.13;;;27.50;;
5040;SDS011;2539;52.568;13.364;2023-02-15T06:17:36;58.47;;;27.87;;
5040;SDS011;2539;52.568;13.364;2023-02-15T06:20:03;58.40;;;27.20;;
5040;SDS011;2539;52.568;13.364;2023-02-15T06:22:29;58.07;;;27.70;;
5040;SDS011;2539;52.568;13.364;2023-02-15T06:24:55;59.40;;;27.70;;
5040;SDS011;2539;52.568;13.364;2023-02-15T06:27:22;65.63;;;28.17;;
5040;SDS011;2539;52.568;13.364;2023-02-15T06:29:48;59.80;;;26.67;;
5040;SDS011;2539;52.568;13.364;2023-02-15T06:32:14;58.43;;;26.30;;
5040;SDS011;2539;52.568;13.364;2023-02-15T06:34:40;59.90;;;27.97;;
5040;SDS011;2539;52.568;13.364;2023-02-15T06:37:07;56.73;;;29.10;;
5040;SDS011;2539;52.568;13.364;2023-02-15T06:39:34;62.27;;;28.27;;
5040;SDS011;2539;52.568;13.364;2023-02-15T06:42:00;59.43;;;27.33;;
5040;SDS011;2539;52.568;13.364;2023-02-15T06:44:26;70.70;;;28.80;;
5040;SDS011;2539;52.568;13.364;2023-02-15T06:46:52;60.40;;;28.57;;
5040;SDS011;2539;52.568;13.364;2023-02-15T06:49:18;58.77;;;28.53;;
5040;SDS011;2539;52.568;13.364;2023-02-15T06:51:45;62.70;;;27.13;;
5040;SDS011;2539;52.568;13.364;2023-02-15T06:54:11;62.20;;;28.77;;
5040;SDS011;2539;52.568;13.364;2023-02-15T06:56:38;59.87;;;28.20;;
5040;SDS011;2539;52.568;13.364;2023-02-15T06:59:04;60.57;;;27.90;;
5040;SDS011;2539;52.568;13.364;2023-02-15T07:01:31;61.17;;;27.77;;
5040;SDS011;2539;52.568;13.364;2023-02-15T07:03:57;64.67;;;28.77;;
5040;SDS011;2539;52.568;13.364;2023-02-15T07:06:23;62.27;;;29.33;;
5040;SDS011;2539;52.568;13.364;2023-02-15T07:08:49;68.37;;;30.80;;
5040;SDS011;2539;52.568;13.364;2023-02-15T07:11:15;63.00;;;29.53;;
5040;SDS011;2539;52.568;13.364;2023-02-15T07:14:01;64.63;;;28.13;;
5040;SDS011;2539;52.568;13.364;2023-02-15T07:16:27;72.90;;;29.53;;
5040;SDS011;2539;52.568;13.364;2023-02-15T07:18:53;60.37;;;28.87;;
5040;SDS011;2539;52.568;13.364;2023-02-15T07:21:19;60.37;;;29.13;;
5040;SDS011;2539;52.568;13.364;2023-02-15T07:23:46;72.50;;;30.10;;
5040;SDS011;2539;52.568;13.364;2023-02-15T07:26:12;65.70;;;29.77;;
5040;SDS011;2539;52.568;13.364;2023-02-15T07:28:38;54.93;;;28.00;;
5040;SDS011;2539;52.568;13.364;2023-02-15T07:31:06;60.00;;;28.97;;
5040;SDS011;2539;52.568;13.364;2023-02-15T07:33:32;60.67;;;28.83;;
5040;SDS011;2539;52.568;13.364;2023-02-15T07:36:00;66.87;;;30.93;;
5040;SDS011;2539;52.568;13.364;2023-02-15T07:38:34;67.07;;;30.00;;
5040;SDS011;2539;52.568;13.364;2023-02-15T07:41:02;64.43;;;29.63;;
5040;SDS011;2539;52.568;13.364;2023-02-15T07:43:32;64.97;;;30.30;;
5040;SDS011;2539;52.568;13.364;2023-02-15T07:46:00;61.47;;;28.67;;
5040;SDS011;2539;52.568;13.364;2023-02-15T07:48:27;74.63;;;34.20;;
5040;SDS011;2539;52.568;13.364;2023-02-15T07:50:53;67.67;;;31.17;;
5040;SDS011;2539;52.568;13.364;2023-02-15T07:53:19;68.17;;;30.30;;
5040;SDS011;2539;52.568;13.364;2023-02-15T07:55:45;64.23;;;30.60;;
5040;SDS011;2539;52.568;13.364;2023-02-15T07:58:11;71.17;;;33.10;;
5040;SDS011;2539;52.568;13.364;2023-02-15T08:00:38;69.50;;;30.67;;
5040;SDS011;2539;52.568;13.364;2023-02-15T08:03:23;70.43;;;30.40;;
5040;SDS011;2539;52.568;13.364;2023-02-15T08:05:55;63.63;;;29.50;;
5040;SDS011;2539;52.568;13.364;2023-02-15T08:08:24;71.00;;;30.77;;
5040;SDS011;2539;52.568;13.364;2023-02-15T08:14:10;72.10;;;30.10;;
5040;SDS011;2539;52.568;13.364;2023-02-15T08:16:39;69.93;;;31.30;;
5040;SDS011;2539;52.568;13.364;2023-02-15T08:19:15;75.87;;;32.43;;
5040;SDS011;2539;52.568;13.364;2023-02-15T08:21:49;70.93;;;30.53;;
5040;SDS011;2539;52.568;13.364;2023-02-15T08:24:18;71.90;;;31.27;;
5040;SDS011;2539;52.568;13.364;2023-02-15T08:26:46;64.60;;;31.00;;
5040;SDS011;2539;52.568;13.364;2023-02-15T08:29:13;60.43;;;29.80;;
5040;SDS011;2539;52.568;13.364;2023-02-15T08:31:41;59.07;;;28.97;;
5040;SDS011;2539;52.568;13.364;2023-02-15T08:34:08;54.20;;;26.53;;
5040;SDS011;2539;52.568;13.364;2023-02-15T08:36:36;50.70;;;25.77;;
5040;SDS011;2539;52.568;13.364;2023-02-15T08:39:04;58.30;;;26.17;;
5040;SDS011;2539;52.568;13.364;2023-02-15T08:41:32;54.30;;;26.60;;
5040;SDS011;2539;52.568;13.364;2023-02-15T08:44:03;59.03;;;27.00;;
5040;SDS011;2539;52.568;13.364;2023-02-15T08:46:32;61.23;;;28.60;;
5040;SDS011;2539;52.568;13.364;2023-02-15T08:49:00;50.90;;;25.57;;
5040;SDS011;2539;52.568;13.364;2023-02-15T08:51:28;53.10;;;26.73;;
5040;SDS011;2539;52.568;13.364;2023-02-15T08:53:57;52.70;;;26.60;;
5040;SDS011;2539;52.568;13.364;2023-02-15T08:56:25;57.53;;;24.93;;
5040;SDS011;2539;52.568;13.364;2023-02-15T08:58:54;57.40;;;26.70;;
5040;SDS011;2539;52.568;13.364;2023-02-15T09:01:22;59.50;;;28.60;;
5040;SDS011;2539;52.568;13.364;2023-02-15T09:03:51;60.60;;;26.57;;
5040;SDS011;2539;52.568;13.364;2023-02-15T09:06:21;52.77;;;26.83;;
5040;SDS011;2539;52.568;13.364;2023-02-15T09:08:48;62.97;;;30.03;;
5040;SDS011;2539;52.568;13.364;2023-02-15T09:11:16;55.37;;;27.00;;
5040;SDS011;2539;52.568;13.364;2023-02-15T09:13:48;56.83;;;27.83;;
5040;SDS011;2539;52.568;13.364;2023-02-15T09:16:26;59.83;;;28.90;;
5040;SDS011;2539;52.568;13.364;2023-02-15T09:18:54;49.23;;;28.63;;
5040;SDS011;2539;52.568;13.364;2023-02-15T09:21:23;54.20;;;28.13;;
5040;SDS011;2539;52.568;13.364;2023-02-15T09:23:51;51.90;;;27.77;;
5040;SDS011;2539;52.568;13.364;2023-02-15T09:26:23;42.17;;;24.90;;
5040;SDS011;2539;52.568;13.364;2023-02-15T09:28:51;46.90;;;24.03;;
5040;SDS011;2539;52.568;13.364;2023-02-15T09:31:20;39.47;;;22.70;;
5040;SDS011;2539;52.568;13.364;2023-02-15T09:33:48;44.50;;;23.40;;
5040;SDS011;2539;52.568;13.364;2023-02-15T09:38:45;35.13;;;20.27;;
5040;SDS011;2539;52.568;13.364;2023-02-15T09:46:43;37.20;;;21.93;;
5040;SDS011;2539;52.568;13.364;2023-02-15T09:54:58;35.13;;;20.47;;
5040;SDS011;2539;52.568;13.364;2023-02-15T09:57:35;34.63;;;20.60;;
5040;SDS011;2539;52.568;13.364;2023-02-15T10:00:09;35.70;;;21.30;;
5040;SDS011;2539;52.568;13.364;2023-02-15T10:03:33;38.37;;;21.47;;
5040;SDS011;2539;52.568;13.364;2023-02-15T10:11:40;31.50;;;20.07;;
5040;SDS011;2539;52.568;13.364;2023-02-15T10:14:14;37.27;;;21.17;;
5040;SDS011;2539;52.568;13.364;2023-02-15T10:17:21;36.97;;;21.13;;
5040;SDS011;2539;52.568;13.364;2023-02-15T10:20:05;35.30;;;19.83;;
5040;SDS011;2539;52.568;13.364;2023-02-15T10:22:47;39.50;;;20.80;;
5040;SDS011;2539;52.568;13.364;2023-02-15T10:25:34;40.67;;;22.20;;
5040;SDS011;2539;52.568;13.364;2023-02-15T10:28:05;42.40;;;23.00;;
5040;SDS011;2539;52.568;13.364;2023-02-15T10:33:41;41.07;;;23.03;;
5040;SDS011;2539;52.568;13.364;2023-02-15T10:45:04;40.13;;;23.40;;
5040;SDS011;2539;52.568;13.364;2023-02-15T10:47:54;47.37;;;23.83;;
5040;SDS011;2539;52.568;13.364;2023-02-15T10:50:54;35.47;;;21.27;;
5040;SDS011;2539;52.568;13.364;2023-02-15T10:59:32;42.10;;;22.10;;
5040;SDS011;2539;52.568;13.364;2023-02-15T11:08:00;36.03;;;20.97;;
5040;SDS011;2539;52.568;13.364;2023-02-15T11:10:45;35.57;;;21.27;;
5040;SDS011;2539;52.568;13.364;2023-02-15T11:13:17;38.47;;;22.13;;
5040;SDS011;2539;52.568;13.364;2023-02-15T11:15:47;40.37;;;20.97;;
5040;SDS011;2539;52.568;13.364;2023-02-15T11:18:24;34.20;;;20.20;;
5040;SDS011;2539;52.568;13.364;2023-02-15T11:21:05;36.93;;;21.30;;
5040;SDS011;2539;52.568;13.364;2023-02-15T11:23:40;37.30;;;21.67;;
5040;SDS011;2539;52.568;13.364;2023-02-15T11:26:29;31.93;;;20.50;;
5040;SDS011;2539;52.568;13.364;2023-02-15T11:29:12;33.97;;;20.47;;
5040;SDS011;2539;52.568;13.364;2023-02-15T11:31:59;32.10;;;19.83;;
5040;SDS011;2539;52.568;13.364;2023-02-15T11:34:33;41.07;;;22.23;;
5040;SDS011;2539;52.568;13.364;2023-02-15T11:37:07;34.83;;;22.03;;
5040;SDS011;2539;52.568;13.364;2023-02-15T11:39:37;39.93;;;23.50;;
5040;SDS011;2539;52.568;13.364;2023-02-15T11:42:13;35.27;;;22.17;;
5040;SDS011;2539;52.568;13.364;2023-02-15T11:45:04;39.40;;;21.43;;
5040;SDS011;2539;52.568;13.364;2023-02-15T11:47:43;35.37;;;21.33;;
5040;SDS011;2539;52.568;13.364;2023-02-15T11:50:12;40.70;;;20.90;;
5040;SDS011;2539;52.568;13.364;2023-02-15T11:52:57;35.87;;;21.03;;
5040;SDS011;2539;52.568;13.364;2023-02-15T11:55:29;40.07;;;22.00;;
5040;SDS011;2539;52.568;13.364;2023-02-15T11:58:04;30.83;;;21.20;;
5040;SDS011;2539;52.568;13.364;2023-02-15T12:00:45;36.10;;;20.73;;
5040;SDS011;2539;52.568;13.364;2023-02-15T12:03:26;45.40;;;22.57;;
5040;SDS011;2539;52.568;13.364;2023-02-15T12:06:11;42.30;;;21.70;;
5040;SDS011;2539;52.568;13.364;2023-02-15T12:08:45;40.43;;;24.43;;
5040;SDS011;2539;52.568;13.364;2023-02-15T12:11:56;34.97;;;23.93;;
5040;SDS011;2539;52.568;13.364;2023-02-15T12:14:14;37.70;;;21.43;;
5040;SDS011;2539;52.568;13.364;2023-02-15T12:16:42;31.57;;;20.00;;
5040;SDS011;2539;52.568;13.364;2023-02-15T12:19:24;34.83;;;20.57;;
5040;SDS011;2539;52.568;13.364;2023-02-15T12:21:59;33.10;;;21.00;;
5040;SDS011;2539;52.568;13.364;2023-02-15T12:24:29;31.10;;;19.90;;
5040;SDS011;2539;52.568;13.364;2023-02-15T12:27:04;32.70;;;21.70;;
5040;SDS011;2539;52.568;13.364;2023-02-15T12:29:45;29.97;;;20.50;;
5040;SDS011;2539;52.568;13.364;2023-02-15T12:32:22;33.40;;;20.40;;
5040;SDS011;2539;52.568;13.364;2023-02-15T12:34:51;32.60;;;19.70;;
5040;SDS011;2539;52.568;13.364;2023-02-15T12:37:25;33.00;;;20.17;;
5040;SDS011;2539;52.568;13.364;2023-02-15T12:39:55;35.27;;;19.63;;
5040;SDS011;2539;52.568;13.364;2023-02-15T12:42:24;39.13;;;20.50;;
5040;SDS011;2539;52.568;13.364;2023-02-15T12:47:22;32.87;;;20.10;;
5040;SDS011;2539;52.568;13.364;2023-02-15T12:52:46;33.37;;;20.33;;
5040;SDS011;2539;52.568;13.364;2023-02-15T12:55:18;32.57;;;19.50;;
5040;SDS011;2539;52.568;13.364;2023-02-15T13:00:45;32.57;;;19.87;;
5040;SDS011;2539;52.568;13.364;2023-02-15T13:03:19;34.03;;;20.30;;
5040;SDS011;2539;52.568;13.364;2023-02-15T13:05:53;34.23;;;20.00;;
5040;SDS011;2539;52.568;13.364;2023-02-15T13:08:26;30.50;;;20.80;;
5040;SDS011;2539;52.568;13.364;2023-02-15T13:13:29;34.17;;;20.10;;
5040;SDS011;2539;52.568;13.364;2023-02-15T13:16:19;31.60;;;20.60;;
5040;SDS011;2539;52.568;13.364;2023-02-15T13:18:45;33.97;;;19.53;;
5040;SDS011;2539;52.568;13.364;2023-02-15T13:21:16;36.20;;;20.63;;
5040;SDS011;2539;52.568;13.364;2023-02-15T13:23:47;36.60;;;21.37;;
5040;SDS011;2539;52.568;13.364;2023-02-15T13:26:18;31.63;;;18.97;;
5040;SDS011;2539;52.568;13.364;2023-02-15T13:28:47;27.37;;;19.03;;
5040;SDS011;2539;52.568;13.364;2023-02-15T13:31:18;31.27;;;19.50;;
5040;SDS011;2539;52.568;13.364;2023-02-15T13:33:48;33.60;;;19.97;;
5040;SDS011;2539;52.568;13.364;2023-02-15T13:36:21;29.53;;;18.30;;
5040;SDS011;2539;52.568;13.364;2023-02-15T13:41:45;35.23;;;18.50;;
5040;SDS011;2539;52.568;13.364;2023-02-15T13:44:29;34.37;;;19.53;;
5040;SDS011;2539;52.568;13.364;2023-02-15T13:53:09;24.87;;;15.80;;
5040;SDS011;2539;52.568;13.364;2023-02-15T13:55:57;23.80;;;15.77;;
5040;SDS011;2539;52.568;13.364;2023-02-15T13:59:00;25.30;;;16.00;;
5040;SDS011;2539;52.568;13.364;2023-02-15T14:01:57;23.40;;;15.70;;
5040;SDS011;2539;52.568;13.364;2023-02-15T14:04:37;23.97;;;16.43;;
5040;SDS011;2539;52.568;13.364;2023-02-15T14:07:39;21.70;;;15.40;;
5040;SDS011;2539;52.568;13.364;2023-02-15T14:10:31;24.63;;;15.80;;
5040;SDS011;2539;52.568;13.364;2023-02-15T14:16:03;24.90;;;16.50;;
5040;SDS011;2539;52.568;13.364;2023-02-15T14:18:42;25.80;;;16.70;;
5040;SDS011;2539;52.568;13.364;2023-02-15T14:21:16;26.73;;;16.90;;
5040;SDS011;2539;52.568;13.364;2023-02-15T14:23:57;24.80;;;16.40;;
5040;SDS011;2539;52.568;13.364;2023-02-15T14:26:41;25.70;;;17.60;;
5040;SDS011;2539;52.568;13.364;2023-02-15T14:29:37;25.07;;;17.17;;
5040;SDS011;2539;52.568;13.364;2023-02-15T14:32:14;24.70;;;17.30;;
5040;SDS011;2539;52.568;13.364;2023-02-15T14:34:59;27.97;;;17.00;;
5040;SDS011;2539;52.568;13.364;2023-02-15T14:37:39;27.60;;;16.73;;
5040;SDS011;2539;52.568;13.364;2023-02-15T14:40:32;23.00;;;16.50;;
5040;SDS011;2539;52.568;13.364;2023-02-15T14:43:47;24.57;;;16.50;;
5040;SDS011;2539;52.568;13.364;2023-02-15T14:46:27;24.37;;;16.07;;
5040;SDS011;2539;52.568;13.364;2023-02-15T14:49:15;23.40;;;16.53;;
5040;SDS011;2539;52.568;13.364;2023-02-15T14:57:33;26.97;;;17.10;;
5040;SDS011;2539;52.568;13.364;2023-02-15T14:59:45;25.03;;;17.63;;
5040;SDS011;2539;52.568;13.364;2023-02-15T15:02:25;26.03;;;17.00;;
5040;SDS011;2539;52.568;13.364;2023-02-15T15:04:58;23.33;;;16.20;;
5040;SDS011;2539;52.568;13.364;2023-02-15T15:12:47;27.13;;;16.00;;
5040;SDS011;2539;52.568;13.364;2023-02-15T15:25:48;24.70;;;17.57;;
5040;SDS011;2539;52.568;13.364;2023-02-15T15:31:17;23.83;;;16.30;;
5040;SDS011;2539;52.568;13.364;2023-02-15T15:34:03;24.40;;;17.00;;
5040;SDS011;2539;52.568;13.364;2023-02-15T15:40:01;28.33;;;18.07;;
5040;SDS011;2539;52.568;13.364;2023-02-15T15:42:48;24.57;;;16.97;;
5040;SDS011;2539;52.568;13.364;2023-02-15T15:48:11;28.40;;;17.47;;
5040;SDS011;2539;52.568;13.364;2023-02-15T15:50:52;24.20;;;16.30;;
5040;SDS011;2539;52.568;13.364;2023-02-15T15:53:23;26.60;;;16.63;;
5040;SDS011;2539;52.568;13.364;2023-02-15T15:55:56;25.93;;;16.80;;
5040;SDS011;2539;52.568;13.364;2023-02-15T15:58:26;34.57;;;18.93;;
5040;SDS011;2539;52.568;13.364;2023-02-15T16:00:54;25.07;;;17.13;;
5040;SDS011;2539;52.568;13.364;2023-02-15T16:03:26;26.60;;;17.10;;
5040;SDS011;2539;52.568;13.364;2023-02-15T16:05:54;29.97;;;16.93;;
5040;SDS011;2539;52.568;13.364;2023-02-15T16:08:35;27.27;;;17.17;;
5040;SDS011;2539;52.568;13.364;2023-02-15T16:11:10;31.17;;;18.23;;
5040;SDS011;2539;52.568;13.364;2023-02-15T16:13:41;29.33;;;18.30;;
5040;SDS011;2539;52.568;13.364;2023-02-15T16:16:09;25.63;;;16.30;;
5040;SDS011;2539;52.568;13.364;2023-02-15T16:18:45;28.27;;;18.47;;
5040;SDS011;2539;52.568;13.364;2023-02-15T16:21:15;31.87;;;17.47;;
5040;SDS011;2539;52.568;13.364;2023-02-15T16:23:59;29.87;;;18.77;;
5040;SDS011;2539;52.568;13.364;2023-02-15T16:29:35;29.10;;;18.37;;
5040;SDS011;2539;52.568;13.364;2023-02-15T16:32:03;31.73;;;18.97;;
5040;SDS011;2539;52.568;13.364;2023-02-15T16:34:31;31.00;;;20.27;;
5040;SDS011;2539;52.568;13.364;2023-02-15T16:37:16;28.53;;;19.43;;
5040;SDS011;2539;52.568;13.364;2023-02-15T16:39:42;29.00;;;19.60;;
5040;SDS011;2539;52.568;13.364;2023-02-15T16:42:10;30.33;;;19.90;;
5040;SDS011;2539;52.568;13.364;2023-02-15T16:44:39;33.80;;;19.30;;
5040;SDS011;2539;52.568;13.364;2023-02-15T16:47:12;29.50;;;19.90;;
5040;SDS011;2539;52.568;13.364;2023-02-15T16:49:45;33.77;;;20.57;;
5040;SDS011;2539;52.568;13.364;2023-02-15T16:52:16;34.97;;;21.60;;
5040;SDS011;2539;52.568;13.364;2023-02-15T16:54:48;35.27;;;20.63;;
5040;SDS011;2539;52.568;13.364;2023-02-15T16:57:25;32.57;;;21.23;;
5040;SDS011;2539;52.568;13.364;2023-02-15T16:59:55;35.83;;;22.13;;
5040;SDS011;2539;52.568;13.364;2023-02-15T17:02:27;33.30;;;21.00;;
5040;SDS011;2539;52.568;13.364;2023-02-15T17:05:01;37.90;;;22.93;;
5040;SDS011;2539;52.568;13.364;2023-02-15T17:07:40;39.53;;;21.90;;
5040;SDS011;2539;52.568;13.364;2023-02-15T17:10:27;35.40;;;20.57;;
5040;SDS011;2539;52.568;13.364;2023-02-15T17:13:00;34.70;;;21.77;;
5040;SDS011;2539;52.568;13.364;2023-02-15T17:15:32;39.23;;;23.83;;